Time;durP1;ratioP1;P1;durP2;ratioP2;P2;SDS_P1;SDS_P2;PMS_P1;PMS_P2;Temp;Humidity;BMP_temperature;BMP_pressure;BME280_temperature;BME280_humidity;BME280_pressure;Samples;Min_cycle;Max_cycle;Signal;HPM_P1;HPM_P2
2022/11/22 00:01:52;;;;;;;6.13;1.90;;;8.90;99.90;;;;;;5073574;28;20223;-56
2022/11/22 00:04:20;;;;;;;2.73;1.77;;;8.80;99.90;;;;;;5073616;28;20204;-57
2022/11/22 00:06:47;;;;;;;5.03;2.10;;;8.90;99.90;;;;;;5073589;28;20696;-56
2022/11/22 00:09:13;;;;;;;5.23;2.13;;;8.90;99.90;;;;;;5073762;28;20233;-56
2022/11/22 00:11:40;;;;;;;4.73;3.30;;;8.90;99.90;;;;;;5073861;28;20205;-56
2022/11/22 00:14:07;;;;;;;5.27;2.87;;;9.00;99.90;;;;;;5073122;28;20580;-56
2022/11/22 00:16:34;;;;;;;4.40;2.20;;;9.10;99.90;;;;;;5073308;28;20209;-56
2022/11/22 00:19:01;;;;;;;4.33;1.93;;;8.90;99.90;;;;;;5073698;28;20208;-57
2022/11/22 00:21:29;;;;;;;3.97;2.17;;;8.90;99.90;;;;;;5073576;28;20213;-56
2022/11/22 00:23:56;;;;;;;3.17;1.80;;;9.00;99.90;;;;;;5072893;28;20216;-56
2022/11/22 00:26:23;;;;;;;7.53;2.10;;;9.00;99.90;;;;;;5073235;28;20238;-57
2022/11/22 00:28:50;;;;;;;3.03;1.87;;;8.90;99.90;;;;;;5073257;28;20208;-56
2022/11/22 00:31:17;;;;;;;3.83;2.10;;;8.80;99.90;;;;;;5073362;28;20205;-56
2022/11/22 00:33:44;;;;;;;2.47;1.80;;;8.70;99.90;;;;;;5072612;28;20584;-57
2022/11/22 00:36:10;;;;;;;3.83;1.87;;;8.60;99.90;;;;;;5072810;28;20684;-57
2022/11/22 00:38:38;;;;;;;3.83;2.43;;;8.40;99.90;;;;;;5072897;28;20215;-57
2022/11/22 00:41:05;;;;;;;6.27;1.90;;;8.30;99.90;;;;;;5072807;28;20229;-57
2022/11/22 00:43:32;;;;;;;5.00;2.03;;;8.10;99.90;;;;;;5072172;28;20215;-56
2022/11/22 00:45:59;;;;;;;3.73;1.97;;;7.90;99.90;;;;;;5072836;28;20209;-56
2022/11/22 00:48:26;;;;;;;5.90;2.20;;;7.70;99.90;;;;;;5073038;28;20201;-57
2022/11/22 00:50:54;;;;;;;4.57;2.00;;;7.80;99.90;;;;;;5073163;28;20236;-56
2022/11/22 00:53:21;;;;;;;4.60;2.27;;;7.90;99.90;;;;;;5073074;28;20787;-57
2022/11/22 00:55:49;;;;;;;4.87;2.33;;;7.90;99.90;;;;;;5073288;28;20201;-56
2022/11/22 00:58:16;;;;;;;3.83;1.80;;;8.00;99.90;;;;;;5073218;28;20677;-57
2022/11/22 01:00:43;;;;;;;3.30;2.07;;;8.10;99.90;;;;;;5072797;28;20231;-55
2022/11/22 01:03:11;;;;;;;3.00;1.83;;;8.20;99.90;;;;;;5073176;28;20584;-56
2022/11/22 01:05:38;;;;;;;3.80;1.80;;;8.30;99.90;;;;;;5073395;28;20727;-57
2022/11/22 01:08:05;;;;;;;2.50;1.70;;;8.40;99.90;;;;;;5072812;28;20213;-56
2022/11/22 01:10:32;;;;;;;3.23;1.90;;;8.50;99.90;;;;;;5072628;28;20236;-56
2022/11/22 01:13:00;;;;;;;2.97;1.63;;;8.70;99.90;;;;;;5072400;28;20665;-56
2022/11/22 01:15:26;;;;;;;2.50;1.60;;;8.80;99.90;;;;;;5072592;28;20213;-56
2022/11/22 01:17:53;;;;;;;3.07;1.97;;;8.80;99.90;;;;;;5072759;28;20211;-56
2022/11/22 01:20:20;;;;;;;2.37;1.57;;;9.00;99.90;;;;;;5073236;28;20236;-57
2022/11/22 01:22:47;;;;;;;2.97;1.13;;;9.10;99.90;;;;;;5072686;28;20407;-57
2022/11/22 01:25:13;;;;;;;3.87;1.37;;;9.20;99.90;;;;;;5071762;28;20201;-56
2022/11/22 01:27:40;;;;;;;5.40;1.40;;;9.30;99.90;;;;;;5072652;28;20593;-57
2022/11/22 01:30:09;;;;;;;4.77;1.47;;;9.40;99.90;;;;;;5072502;28;20750;-56
2022/11/22 01:32:36;;;;;;;2.77;1.30;;;9.50;99.90;;;;;;5072398;28;20205;-56
2022/11/22 01:35:02;;;;;;;1.70;1.00;;;9.60;99.90;;;;;;5071749;28;20201;-56
2022/11/22 01:37:29;;;;;;;2.33;1.20;;;9.60;99.90;;;;;;5072200;28;20207;-56
2022/11/22 01:39:56;;;;;;;2.83;1.60;;;9.70;99.90;;;;;;5072306;28;20248;-56
2022/11/22 01:42:23;;;;;;;1.50;1.17;;;9.80;99.90;;;;;;5072625;28;20291;-56
2022/11/22 01:44:50;;;;;;;2.03;1.33;;;9.80;99.90;;;;;;5071830;28;20208;-56
2022/11/22 01:47:21;;;;;;;5.07;1.40;;;9.80;99.90;;;;;;5072373;28;20255;-56
2022/11/22 01:49:52;;;;;;;2.37;1.10;;;9.80;99.90;;;;;;5074913;28;20311;-56
2022/11/22 01:52:20;;;;;;;2.40;1.30;;;9.70;99.90;;;;;;5076066;28;20628;-56
2022/11/22 01:54:52;;;;;;;1.50;1.10;;;9.70;99.90;;;;;;5075723;28;20296;-56
2022/11/22 01:57:22;;;;;;;1.67;1.10;;;9.70;99.90;;;;;;5076222;28;20215;-56
2022/11/22 01:59:54;;;;;;;2.27;1.30;;;9.80;99.90;;;;;;5075968;28;20278;-56
2022/11/22 02:02:22;;;;;;;3.13;1.27;;;9.80;99.90;;;;;;5075961;28;20208;-56
2022/11/22 02:04:51;;;;;;;3.40;1.47;;;9.80;99.90;;;;;;5075143;28;20692;-55
2022/11/22 02:07:21;;;;;;;1.73;1.30;;;9.80;99.90;;;;;;5075781;28;20212;-56
2022/11/22 02:09:51;;;;;;;3.07;1.50;;;9.80;99.90;;;;;;5075667;28;20240;-56
2022/11/22 02:12:23;;;;;;;3.07;1.47;;;9.70;99.90;;;;;;5075863;28;20281;-56
2022/11/22 02:14:50;;;;;;;1.67;1.13;;;9.80;99.90;;;;;;5075140;28;20699;-56
2022/11/22 02:17:17;;;;;;;2.67;1.50;;;9.80;99.90;;;;;;5075576;28;20216;-57
2022/11/22 02:19:48;;;;;;;3.77;1.60;;;9.90;99.90;;;;;;5075429;28;20701;-56
2022/11/22 02:22:27;;;;;;;2.80;1.30;;;10.00;99.90;;;;;;5075830;28;20232;-56
2022/11/22 02:24:57;;;;;;;2.60;1.67;;;10.00;99.90;;;;;;5074980;28;20672;-57
2022/11/22 02:27:25;;;;;;;4.10;1.50;;;10.10;99.90;;;;;;5075487;28;20200;-56
2022/11/22 02:29:52;;;;;;;2.73;1.40;;;10.10;99.90;;;;;;5075002;28;20263;-57
2022/11/22 02:32:19;;;;;;;2.53;1.50;;;10.10;99.90;;;;;;5075639;28;20212;-57
2022/11/22 02:34:47;;;;;;;4.20;1.63;;;10.00;99.90;;;;;;5074755;28;20254;-56
2022/11/22 02:37:17;;;;;;;1.87;1.33;;;10.00;99.90;;;;;;5075133;28;20291;-56
2022/11/22 02:39:46;;;;;;;4.07;1.53;;;10.00;99.90;;;;;;5075115;28;20225;-56
2022/11/22 02:42:13;;;;;;;3.30;1.30;;;10.00;99.90;;;;;;5075046;28;20211;-56
2022/11/22 02:44:42;;;;;;;2.97;1.60;;;10.00;99.90;;;;;;5074670;28;20833;-56
2022/11/22 02:47:09;;;;;;;4.17;1.70;;;10.00;99.90;;;;;;5074838;28;20587;-56
2022/11/22 02:49:36;;;;;;;3.07;1.27;;;10.10;99.90;;;;;;5074892;28;20224;-56
2022/11/22 02:52:02;;;;;;;2.77;1.20;;;10.10;99.90;;;;;;5074804;28;20305;-56
2022/11/22 02:54:29;;;;;;;3.23;1.20;;;10.00;99.90;;;;;;5074356;28;20209;-56
2022/11/22 02:56:56;;;;;;;2.63;1.47;;;9.90;99.90;;;;;;5074659;28;20205;-56
2022/11/22 02:59:23;;;;;;;3.77;1.40;;;9.90;99.90;;;;;;5074780;28;20231;-56
2022/11/22 03:01:51;;;;;;;3.10;1.43;;;9.90;99.90;;;;;;5074711;28;20204;-56
2022/11/22 03:04:24;;;;;;;3.37;1.47;;;9.80;99.90;;;;;;5074229;28;20201;-56
2022/11/22 03:06:52;;;;;;;4.73;1.47;;;9.80;99.90;;;;;;5074778;28;20221;-56
2022/11/22 03:09:19;;;;;;;2.33;1.53;;;9.50;99.90;;;;;;5074585;28;20231;-56
2022/11/22 03:11:46;;;;;;;3.20;1.37;;;9.50;99.90;;;;;;5074702;28;20225;-56
2022/11/22 03:14:14;;;;;;;2.90;1.40;;;9.50;99.90;;;;;;5074271;28;20450;-56
2022/11/22 03:16:40;;;;;;;3.23;1.40;;;9.40;99.90;;;;;;5074724;28;20208;-56
2022/11/22 03:19:09;;;;;;;4.90;1.47;;;9.40;99.90;;;;;;5074602;28;20231;-56
2022/11/22 03:21:36;;;;;;;2.77;1.50;;;9.30;99.90;;;;;;5074625;28;20208;-56
2022/11/22 03:24:03;;;;;;;2.40;1.43;;;9.30;99.90;;;;;;5073849;28;20664;-56
2022/11/22 03:26:30;;;;;;;3.50;1.60;;;9.30;99.90;;;;;;5074284;28;20211;-56
2022/11/22 03:28:57;;;;;;;2.53;1.63;;;9.30;99.90;;;;;;5074389;28;20247;-56
2022/11/22 03:31:24;;;;;;;2.53;1.40;;;9.20;99.90;;;;;;5074252;28;20667;-56
2022/11/22 03:33:50;;;;;;;3.87;1.40;;;9.00;99.90;;;;;;5073715;28;20201;-56
2022/11/22 03:36:19;;;;;;;2.93;1.50;;;8.90;99.90;;;;;;5074072;28;20211;-56
2022/11/22 03:38:46;;;;;;;3.30;1.60;;;8.80;99.90;;;;;;5074126;28;20703;-56
2022/11/22 03:41:12;;;;;;;3.73;1.60;;;8.70;99.90;;;;;;5073909;28;20708;-56
2022/11/22 03:43:39;;;;;;;2.43;1.50;;;8.70;99.90;;;;;;5073538;28;20299;-56
2022/11/22 03:46:06;;;;;;;2.17;1.30;;;8.70;99.90;;;;;;5074231;28;20212;-56
2022/11/22 03:48:33;;;;;;;3.03;1.60;;;8.80;99.90;;;;;;5073851;28;20609;-56
2022/11/22 03:51:04;;;;;;;4.87;1.60;;;8.80;99.90;;;;;;5073567;28;20596;-56
2022/11/22 03:53:33;;;;;;;2.17;1.50;;;8.90;99.90;;;;;;5073276;28;20205;-56
2022/11/22 03:56:00;;;;;;;2.37;1.50;;;9.00;99.90;;;;;;5073877;28;20213;-56
2022/11/22 03:58:26;;;;;;;2.20;1.60;;;9.00;99.90;;;;;;5073756;28;20636;-56
2022/11/22 04:00:53;;;;;;;3.93;1.50;;;9.00;99.90;;;;;;5073603;28;20224;-56
2022/11/22 04:03:20;;;;;;;2.63;1.50;;;9.10;99.90;;;;;;5073187;28;20209;-56
2022/11/22 04:05:47;;;;;;;3.10;1.43;;;9.20;99.90;;;;;;5073574;28;20243;-56
2022/11/22 04:08:14;;;;;;;3.03;1.50;;;9.40;99.90;;;;;;5073736;28;20216;-56
2022/11/22 04:10:42;;;;;;;2.53;1.40;;;9.40;99.90;;;;;;5073254;28;20251;-56
2022/11/22 04:13:09;;;;;;;2.93;1.70;;;9.40;99.90;;;;;;5073019;28;20209;-57
2022/11/22 04:15:36;;;;;;;3.40;1.90;;;9.40;99.90;;;;;;5072863;28;20204;-56
2022/11/22 04:18:02;;;;;;;3.43;1.43;;;9.30;99.90;;;;;;5073102;28;20615;-56
2022/11/22 04:23:18;;;;;;;4.00;1.70;;;9.20;99.90;;;;;;5073447;28;20682;-56
2022/11/22 04:25:47;;;;;;;5.27;1.73;;;9.10;99.90;;;;;;5073203;28;20268;-56
2022/11/22 04:28:16;;;;;;;3.23;1.67;;;9.10;99.90;;;;;;5073032;28;20209;-56
2022/11/22 04:33:28;;;;;;;2.83;1.50;;;9.00;99.90;;;;;;5072762;28;20281;-56
2022/11/22 04:35:55;;;;;;;7.70;2.47;;;9.00;99.90;;;;;;5073158;28;20658;-58
2022/11/22 04:38:22;;;;;;;5.57;2.00;;;9.00;99.90;;;;;;5072825;28;20209;-56
2022/11/22 04:40:50;;;;;;;5.43;1.70;;;8.90;99.90;;;;;;5072710;28;20689;-55
2022/11/22 04:46:04;;;;;;;4.77;1.73;;;8.90;99.90;;;;;;5073051;28;20208;-56
2022/11/22 04:48:31;;;;;;;2.83;1.60;;;8.80;99.90;;;;;;5072695;28;20209;-56
2022/11/22 04:53:43;;;;;;;4.00;1.80;;;8.70;99.90;;;;;;5072376;28;20266;-56
2022/11/22 04:56:11;;;;;;;4.63;2.10;;;8.70;99.90;;;;;;5072501;28;20209;-58
2022/11/22 04:58:39;;;;;;;3.30;1.67;;;8.60;99.90;;;;;;5072638;28;20212;-56
2022/11/22 05:01:06;;;;;;;4.57;1.57;;;8.60;99.90;;;;;;5072328;28;20225;-56
2022/11/22 05:03:33;;;;;;;5.50;2.00;;;8.50;99.90;;;;;;5071825;28;20215;-56
2022/11/22 05:06:02;;;;;;;3.70;1.70;;;8.50;99.90;;;;;;5072307;28;20243;-56
2022/11/22 05:08:29;;;;;;;5.40;1.80;;;8.40;99.90;;;;;;5072515;28;20201;-56
2022/11/22 05:10:59;;;;;;;4.33;1.90;;;8.30;99.90;;;;;;5072315;28;20232;-56
2022/11/22 05:13:29;;;;;;;6.97;2.03;;;8.20;99.90;;;;;;5071916;28;20300;-56
2022/11/22 05:15:57;;;;;;;5.00;1.67;;;8.20;99.90;;;;;;5072348;28;20227;-57
2022/11/22 05:18:25;;;;;;;4.53;1.70;;;8.10;99.90;;;;;;5072035;28;20579;-55
2022/11/22 05:20:52;;;;;;;5.93;1.57;;;8.10;99.90;;;;;;5072308;28;20217;-56
2022/11/22 05:26:04;;;;;;;3.10;2.00;;;7.90;99.90;;;;;;5072330;28;20679;-56
2022/11/22 05:28:35;;;;;;;4.13;1.70;;;7.90;99.90;;;;;;5072113;28;20209;-56
2022/11/22 05:31:07;;;;;;;4.43;1.50;;;7.80;99.90;;;;;;5071945;28;20321;-57
2022/11/22 05:33:36;;;;;;;5.67;2.00;;;7.70;99.90;;;;;;5071902;28;20473;-56
2022/11/22 05:36:03;;;;;;;2.87;1.50;;;7.70;99.90;;;;;;5072315;28;20209;-56
2022/11/22 05:38:30;;;;;;;4.83;1.87;;;7.70;99.90;;;;;;5072516;28;20205;-57
2022/11/22 05:40:57;;;;;;;4.77;1.80;;;7.60;99.90;;;;;;5072303;28;20217;-57
2022/11/22 05:43:23;;;;;;;5.43;2.23;;;7.60;99.90;;;;;;5072094;28;20208;-57
2022/11/22 05:45:51;;;;;;;6.80;3.13;;;7.60;99.90;;;;;;5072211;28;20205;-57
2022/11/22 05:48:18;;;;;;;5.47;2.80;;;7.50;99.90;;;;;;5072151;28;20274;-57
2022/11/22 05:50:45;;;;;;;7.70;3.60;;;7.50;99.90;;;;;;5071866;28;20343;-57
2022/11/22 05:53:12;;;;;;;7.33;4.13;;;7.50;99.90;;;;;;5071621;28;20683;-57
2022/11/22 05:55:38;;;;;;;9.40;4.23;;;7.50;99.90;;;;;;5071487;28;20234;-57
2022/11/22 05:58:05;;;;;;;15.53;6.97;;;7.50;99.90;;;;;;5071612;28;20204;-57
2022/11/22 06:00:32;;;;;;;20.50;12.23;;;7.50;99.90;;;;;;5071912;28;20229;-57
2022/11/22 06:03:04;;;;;;;8.67;4.73;;;7.40;99.90;;;;;;5072002;28;20217;-57
2022/11/22 06:05:31;;;;;;;9.10;3.37;;;7.50;99.90;;;;;;5071174;28;20673;-57
2022/11/22 06:07:59;;;;;;;6.17;2.60;;;7.50;99.90;;;;;;5071860;28;20208;-57
2022/11/22 06:10:26;;;;;;;6.53;3.30;;;7.50;99.90;;;;;;5071612;28;20709;-59
2022/11/22 06:12:53;;;;;;;4.77;2.57;;;7.60;99.90;;;;;;5072082;28;20212;-57
2022/11/22 06:15:19;;;;;;;9.90;4.63;;;7.70;99.90;;;;;;5071007;28;20201;-57
2022/11/22 06:17:46;;;;;;;10.67;4.43;;;7.80;99.90;;;;;;5071686;28;20202;-57
2022/11/22 06:20:15;;;;;;;5.40;4.10;;;7.90;99.90;;;;;;5071394;28;20225;-57
2022/11/22 06:22:42;;;;;;;7.73;3.90;;;8.00;99.90;;;;;;5071554;28;20208;-57
2022/11/22 06:25:10;;;;;;;6.27;3.13;;;8.00;99.90;;;;;;5071157;28;20201;-57
2022/11/22 06:27:36;;;;;;;5.60;2.83;;;8.00;99.90;;;;;;5071601;28;20665;-57
2022/11/22 06:30:04;;;;;;;9.30;5.30;;;7.90;99.90;;;;;;5071520;28;20705;-57
2022/11/22 06:32:33;;;;;;;6.67;3.30;;;7.90;99.90;;;;;;5071555;28;20730;-57
2022/11/22 06:35:00;;;;;;;4.90;3.00;;;7.90;99.90;;;;;;5072387;28;20669;-57
2022/11/22 06:37:29;;;;;;;9.03;4.67;;;8.00;99.90;;;;;;5075205;28;20212;-57
2022/11/22 06:39:55;;;;;;;5.40;3.30;;;7.90;99.90;;;;;;5075227;28;20717;-57
2022/11/22 06:42:22;;;;;;;37.33;21.27;;;7.90;99.90;;;;;;5075354;28;20661;-57
2022/11/22 06:44:49;;;;;;;9.83;3.67;;;7.80;99.90;;;;;;5074641;28;20227;-56
2022/11/22 06:47:16;;;;;;;6.17;3.10;;;7.80;99.90;;;;;;5075148;28;20473;-57
2022/11/22 06:49:43;;;;;;;6.10;2.90;;;7.70;99.90;;;;;;5075014;28;20255;-57
2022/11/22 06:52:10;;;;;;;4.07;2.70;;;7.70;99.90;;;;;;5074714;28;20793;-57
2022/11/22 06:54:39;;;;;;;4.57;2.50;;;7.70;99.90;;;;;;5074702;28;20333;-57
2022/11/22 06:57:05;;;;;;;7.47;3.00;;;7.70;99.90;;;;;;5074645;28;20666;-57
2022/11/22 06:59:32;;;;;;;5.23;2.30;;;7.70;99.90;;;;;;5074807;28;20490;-57
2022/11/22 07:01:59;;;;;;;7.33;2.30;;;7.70;99.90;;;;;;5074661;28;20201;-56
2022/11/22 07:04:25;;;;;;;6.90;2.10;;;7.80;99.90;;;;;;5074277;28;20212;-57
2022/11/22 07:06:52;;;;;;;7.10;2.83;;;7.90;99.90;;;;;;5074708;28;20434;-58
2022/11/22 07:09:19;;;;;;;6.27;2.40;;;8.00;99.90;;;;;;5074827;28;20240;-56
2022/11/22 07:11:47;;;;;;;6.83;2.57;;;8.10;99.90;;;;;;5074832;28;20575;-57
2022/11/22 07:14:14;;;;;;;5.50;2.17;;;8.10;99.90;;;;;;5074434;28;20694;-57
2022/11/22 07:16:41;;;;;;;7.00;3.30;;;8.10;99.90;;;;;;5074767;28;20699;-57
2022/11/22 07:19:08;;;;;;;4.53;2.80;;;8.00;99.90;;;;;;5075126;28;20236;-57
2022/11/22 07:21:37;;;;;;;4.97;2.20;;;7.90;99.90;;;;;;5075022;28;20200;-57
2022/11/22 07:24:04;;;;;;;6.27;2.57;;;7.90;99.90;;;;;;5074100;28;20216;-57
2022/11/22 07:26:31;;;;;;;5.67;2.53;;;7.80;99.90;;;;;;5074445;28;20208;-57
2022/11/22 07:29:00;;;;;;;4.83;2.37;;;7.80;99.90;;;;;;5074488;28;20213;-57
2022/11/22 07:31:27;;;;;;;5.77;2.37;;;7.70;99.90;;;;;;5074462;28;20217;-57
2022/11/22 07:33:55;;;;;;;7.67;2.40;;;7.70;99.90;;;;;;5073650;28;20255;-57
2022/11/22 07:36:22;;;;;;;5.03;2.20;;;7.70;99.90;;;;;;5074305;28;20211;-57
2022/11/22 07:38:49;;;;;;;7.50;2.13;;;7.80;99.90;;;;;;5074463;28;20209;-57
2022/11/22 07:41:17;;;;;;;4.77;2.17;;;7.90;99.90;;;;;;5074003;28;20595;-57
2022/11/22 07:43:44;;;;;;;4.33;2.13;;;7.90;99.90;;;;;;5073415;28;20684;-57
2022/11/22 07:46:20;;;;;;;5.20;2.30;;;8.00;99.90;;;;;;5073282;28;20254;-57
2022/11/22 07:48:48;;;;;;;6.90;2.33;;;8.00;99.90;;;;;;5073951;28;20205;-57
2022/11/22 07:51:15;;;;;;;9.10;2.40;;;8.00;99.90;;;;;;5073946;28;20385;-57
2022/11/22 07:53:42;;;;;;;8.50;2.23;;;8.00;99.90;;;;;;5073493;28;20212;-58
2022/11/22 07:56:09;;;;;;;7.83;2.90;;;8.00;99.90;;;;;;5073897;28;20201;-57
2022/11/22 07:58:36;;;;;;;5.63;2.93;;;8.00;99.90;;;;;;5073870;28;20668;-57
2022/11/22 08:01:08;;;;;;;8.93;3.10;;;8.00;99.90;;;;;;5073572;28;20697;-57
2022/11/22 08:03:36;;;;;;;8.87;2.83;;;8.10;99.90;;;;;;5073954;28;20599;-57
2022/11/22 08:06:05;;;;;;;7.30;2.70;;;8.20;99.90;;;;;;5073382;28;20212;-57
2022/11/22 08:08:33;;;;;;;9.93;2.37;;;8.20;99.90;;;;;;5073810;28;20209;-57
2022/11/22 08:11:00;;;;;;;6.73;2.40;;;8.30;99.90;;;;;;5074702;28;20224;-57
2022/11/22 08:13:27;;;;;;;9.57;2.57;;;8.40;99.90;;;;;;5073891;28;20270;-57
2022/11/22 08:15:54;;;;;;;12.57;2.37;;;8.50;99.90;;;;;;5073241;28;20207;-57
2022/11/22 08:18:21;;;;;;;7.17;2.60;;;8.60;99.90;;;;;;5073681;28;20211;-57
2022/11/22 08:20:49;;;;;;;9.13;2.37;;;8.80;99.90;;;;;;5073435;28;20320;-57
2022/11/22 08:23:16;;;;;;;4.97;2.20;;;8.90;99.90;;;;;;5073459;28;20582;-57
2022/11/22 08:25:43;;;;;;;13.27;2.60;;;9.00;99.90;;;;;;5072780;28;20262;-57
2022/11/22 08:28:10;;;;;;;8.23;2.43;;;9.10;99.90;;;;;;5073583;28;20209;-57
2022/11/22 08:30:37;;;;;;;9.20;3.80;;;9.30;99.90;;;;;;5073739;28;20228;-57
2022/11/22 08:33:04;;;;;;;4.43;2.00;;;9.40;99.90;;;;;;5073206;28;20267;-58
2022/11/22 08:35:31;;;;;;;8.40;2.47;;;9.50;99.90;;;;;;5072964;28;20306;-57
2022/11/22 08:37:59;;;;;;;7.33;2.67;;;9.60;99.90;;;;;;5073602;28;20213;-57
2022/11/22 08:40:26;;;;;;;14.00;4.73;;;9.80;99.90;;;;;;5073119;28;20225;-57
2022/11/22 08:42:55;;;;;;;10.67;2.70;;;9.90;99.90;;;;;;5073332;28;20213;-57
2022/11/22 08:45:22;;;;;;;5.33;2.37;;;10.00;99.90;;;;;;5072587;28;20254;-57
2022/11/22 08:47:51;;;;;;;5.63;2.40;;;10.00;99.90;;;;;;5072895;28;20254;-57
2022/11/22 08:50:18;;;;;;;7.93;4.23;;;10.10;99.90;;;;;;5072565;28;20233;-57
2022/11/22 08:52:45;;;;;;;10.50;3.53;;;10.30;99.90;;;;;;5072842;28;20675;-57
2022/11/22 08:55:13;;;;;;;4.03;2.10;;;10.40;99.90;;;;;;5071843;28;20333;-57
2022/11/22 08:57:40;;;;;;;5.90;2.10;;;10.50;99.90;;;;;;5073036;28;20236;-57
2022/11/22 09:00:09;;;;;;;7.93;2.47;;;10.50;99.90;;;;;;5073740;28;20225;-58
2022/11/22 09:02:36;;;;;;;5.37;2.37;;;10.60;99.90;;;;;;5073463;28;20234;-57
2022/11/22 09:05:03;;;;;;;8.20;3.53;;;10.60;99.90;;;;;;5072577;28;20693;-59
2022/11/22 09:07:30;;;;;;;6.97;2.37;;;10.70;99.90;;;;;;5072491;28;20304;-58
2022/11/22 09:09:57;;;;;;;6.30;2.27;;;10.80;99.90;;;;;;5072663;28;20241;-58
2022/11/22 09:12:25;;;;;;;7.23;2.23;;;11.00;99.90;;;;;;5072705;28;20228;-57
2022/11/22 09:14:52;;;;;;;8.07;2.23;;;11.00;99.90;;;;;;5072320;28;20208;-57
2022/11/22 09:17:19;;;;;;;7.13;2.10;;;11.10;99.90;;;;;;5072858;28;20665;-57
2022/11/22 09:19:46;;;;;;;5.90;2.13;;;11.10;99.90;;;;;;5072604;28;20228;-57
2022/11/22 09:22:13;;;;;;;5.00;2.10;;;11.30;99.90;;;;;;5072386;28;20204;-58
2022/11/22 09:24:40;;;;;;;7.70;1.80;;;11.30;99.90;;;;;;5072391;28;20481;-57
2022/11/22 09:27:06;;;;;;;7.63;2.40;;;11.30;99.90;;;;;;5072634;28;20643;-57
2022/11/22 09:29:35;;;;;;;23.07;17.80;;;11.20;99.90;;;;;;5072500;28;20248;-57
2022/11/22 09:32:02;;;;;;;10.87;4.97;;;11.20;99.90;;;;;;5073499;28;20235;-61
2022/11/22 09:34:29;;;;;;;6.47;2.93;;;11.20;99.90;;;;;;5073810;28;20205;-61
2022/11/22 09:36:55;;;;;;;4.63;1.80;;;11.10;99.90;;;;;;5074846;28;20269;-62
2022/11/22 09:39:22;;;;;;;8.73;2.30;;;11.20;99.90;;;;;;5074173;28;20239;-60
2022/11/22 09:42:31;;;;;;;6.77;2.40;;;11.20;99.90;;;;;;5074424;28;20235;-61
2022/11/22 09:45:24;;;;;;;7.37;2.13;;;11.20;99.90;;;;;;5071022;28;20211;-61
2022/11/22 09:48:01;;;;;;;7.57;2.17;;;11.30;99.90;;;;;;5074298;28;20226;-61
2022/11/22 09:50:37;;;;;;;9.37;2.50;;;11.50;99.90;;;;;;5074086;28;20316;-61
2022/11/22 09:53:10;;;;;;;9.67;2.17;;;11.60;99.90;;;;;;5073788;28;20602;-61
2022/11/22 09:55:42;;;;;;;6.73;2.20;;;11.80;99.90;;;;;;5073415;28;20204;-61
2022/11/22 09:58:16;;;;;;;5.97;2.30;;;11.90;99.90;;;;;;5074494;28;20204;-60
2022/11/22 10:00:44;;;;;;;6.03;1.80;;;11.70;99.90;;;;;;5073997;28;20723;-61
2022/11/22 10:03:17;;;;;;;5.00;2.00;;;11.50;99.90;;;;;;5073195;28;20579;-61
2022/11/22 10:05:49;;;;;;;9.50;2.00;;;11.40;99.90;;;;;;5073026;28;20213;-61
2022/11/22 10:08:29;;;;;;;5.40;2.27;;;11.50;99.90;;;;;;5074209;28;20208;-61
2022/11/22 10:10:58;;;;;;;7.13;2.47;;;11.70;99.90;;;;;;5076573;28;20231;-60
2022/11/22 10:13:31;;;;;;;8.40;2.10;;;11.70;99.90;;;;;;5077465;28;20224;-61
2022/11/22 10:16:05;;;;;;;8.90;2.50;;;11.70;99.90;;;;;;5076904;28;20544;-61
2022/11/22 10:18:39;;;;;;;8.37;2.20;;;11.70;99.90;;;;;;5077681;28;20216;-61
2022/11/22 10:21:11;;;;;;;9.77;2.67;;;11.80;99.90;;;;;;5078381;28;20274;-61
2022/11/22 10:23:39;;;;;;;6.63;2.77;;;11.80;99.90;;;;;;5079965;28;20246;-60
2022/11/22 10:26:18;;;;;;;8.87;2.03;;;11.90;99.90;;;;;;5076931;28;20205;-60
2022/11/22 10:28:53;;;;;;;6.30;2.40;;;12.00;99.90;;;;;;5070341;28;20438;-60
2022/11/22 10:31:29;;;;;;;6.37;2.80;;;12.20;99.90;;;;;;5074155;28;20208;-60
2022/11/22 10:34:01;;;;;;;3.47;1.60;;;12.40;99.90;;;;;;5073951;28;20232;-60
2022/11/22 10:36:37;;;;;;;9.90;4.80;;;12.40;99.90;;;;;;5074236;28;20299;-60
2022/11/22 10:39:19;;;;;;;21.37;9.90;;;12.40;99.90;;;;;;5074103;28;20209;-60
2022/11/22 10:42:12;;;;;;;7.83;2.90;;;12.50;99.90;;;;;;5073962;28;20212;-59
2022/11/22 10:44:50;;;;;;;7.57;2.50;;;12.40;99.90;;;;;;5073579;28;20216;-60
2022/11/22 10:47:33;;;;;;;7.27;2.33;;;12.40;99.90;;;;;;5073969;28;20703;-59
2022/11/22 10:50:05;;;;;;;7.63;2.20;;;12.30;99.90;;;;;;5074280;28;20247;-60
2022/11/22 10:52:39;;;;;;;6.63;2.20;;;12.30;99.90;;;;;;5073803;28;20298;-60
2022/11/22 10:55:20;;;;;;;21.20;10.03;;;12.30;99.90;;;;;;5073940;28;20208;-60
2022/11/22 10:57:57;;;;;;;7.90;3.03;;;12.20;99.90;;;;;;5074099;28;20649;-60
2022/11/22 11:00:25;;;;;;;4.13;2.20;;;12.20;99.90;;;;;;5074078;28;20220;-60
2022/11/22 11:03:04;;;;;;;8.30;2.00;;;12.20;99.90;;;;;;5073425;28;20215;-60
2022/11/22 11:05:38;;;;;;;4.80;1.87;;;12.20;99.90;;;;;;5073861;28;20208;-62
2022/11/22 11:08:08;;;;;;;5.20;2.00;;;12.20;99.90;;;;;;5073376;28;20205;-60
2022/11/22 11:10:36;;;;;;;6.33;2.00;;;12.20;99.90;;;;;;5073815;28;20241;-61
2022/11/22 11:13:14;;;;;;;6.20;2.00;;;12.40;99.90;;;;;;5073346;28;20228;-61
2022/11/22 11:15:45;;;;;;;7.73;2.13;;;12.50;99.90;;;;;;5073429;28;20215;-62
2022/11/22 11:18:18;;;;;;;9.40;2.43;;;12.60;99.90;;;;;;5073357;28;20259;-60
2022/11/22 11:20:46;;;;;;;6.47;2.47;;;12.60;99.90;;;;;;5072912;28;20595;-60
2022/11/22 11:23:14;;;;;;;6.10;1.80;;;12.50;99.90;;;;;;5072549;28;20201;-63
2022/11/22 11:25:42;;;;;;;4.50;2.20;;;12.40;99.90;;;;;;5073292;28;20209;-59
2022/11/22 11:28:16;;;;;;;4.97;2.13;;;12.40;99.90;;;;;;5074475;28;20205;-59
2022/11/22 11:30:46;;;;;;;5.13;2.20;;;12.40;99.90;;;;;;5074221;28;20225;-60
2022/11/22 11:33:27;;;;;;;6.03;2.10;;;12.40;99.90;;;;;;5074112;28;20236;-60
2022/11/22 11:35:57;;;;;;;11.83;5.20;;;12.30;99.90;;;;;;5073892;28;20213;-60
2022/11/22 11:38:33;;;;;;;7.57;1.80;;;12.40;99.90;;;;;;5074112;28;20592;-59
2022/11/22 11:41:17;;;;;;;5.37;2.03;;;12.40;99.90;;;;;;5074238;28;20315;-59
2022/11/22 11:43:45;;;;;;;4.83;1.60;;;12.30;99.90;;;;;;5074345;28;20212;-60
2022/11/22 11:46:16;;;;;;;4.03;1.47;;;12.20;99.90;;;;;;5073936;28;20213;-60
2022/11/22 11:48:45;;;;;;;7.13;1.80;;;12.30;99.90;;;;;;5074545;28;20700;-60
2022/11/22 11:51:16;;;;;;;6.07;1.53;;;12.40;99.90;;;;;;5074386;28;20619;-62
2022/11/22 11:53:53;;;;;;;3.47;1.70;;;12.40;99.90;;;;;;5074588;28;20239;-58
2022/11/22 11:56:49;;;;;;;5.17;1.70;;;12.40;99.90;;;;;;5073924;28;20201;-58
2022/11/22 11:59:18;;;;;;;5.43;2.10;;;12.60;99.90;;;;;;5073925;28;20221;-58
2022/11/22 12:01:53;;;;;;;4.93;1.70;;;12.70;99.90;;;;;;5073925;28;20734;-57
2022/11/22 12:04:24;;;;;;;4.47;1.73;;;12.80;99.90;;;;;;5073295;28;20676;-58
2022/11/22 12:06:57;;;;;;;3.90;1.70;;;12.80;99.90;;;;;;5073552;28;20213;-58
2022/11/22 12:09:44;;;;;;;6.57;1.87;;;12.70;99.90;;;;;;5074097;28;20251;-58
2022/11/22 12:12:33;;;;;;;4.53;1.90;;;12.70;99.90;;;;;;5073773;28;20236;-57
2022/11/22 12:15:07;;;;;;;9.83;2.87;;;12.80;99.90;;;;;;5073185;28;20236;-58
2022/11/22 12:17:41;;;;;;;7.00;2.17;;;12.90;99.90;;;;;;5074078;28;20649;-58
2022/11/22 12:20:16;;;;;;;4.70;1.40;;;12.80;99.90;;;;;;5073735;28;20278;-58
2022/11/22 12:22:52;;;;;;;5.90;1.70;;;12.70;99.90;;;;;;5074203;28;20716;-58
2022/11/22 12:25:31;;;;;;;5.30;1.50;;;12.70;99.90;;;;;;5073286;28;20201;-58
2022/11/22 12:28:02;;;;;;;4.83;1.73;;;12.60;99.90;;;;;;5073911;28;20213;-58
2022/11/22 12:30:29;;;;;;;8.27;1.97;;;12.60;99.90;;;;;;5073641;28;20229;-57
2022/11/22 12:33:00;;;;;;;4.93;1.57;;;12.50;99.90;;;;;;5072923;28;20319;-58
2022/11/22 12:35:33;;;;;;;7.30;1.77;;;12.50;99.90;;;;;;5073272;28;20224;-58
2022/11/22 12:38:08;;;;;;;5.77;1.70;;;12.50;99.90;;;;;;5073390;28;20292;-58
2022/11/22 12:40:41;;;;;;;7.10;2.77;;;12.50;99.90;;;;;;5073288;28;20242;-59
2022/11/22 12:43:16;;;;;;;7.17;1.50;;;12.50;99.90;;;;;;5073737;28;20612;-58
2022/11/22 12:45:48;;;;;;;4.30;1.97;;;12.50;99.90;;;;;;5073276;28;20295;-59
2022/11/22 12:48:20;;;;;;;5.67;1.67;;;12.50;99.90;;;;;;5073782;28;20215;-59
2022/11/22 12:50:52;;;;;;;5.30;1.93;;;12.50;99.90;;;;;;5073128;28;20335;-59
2022/11/22 12:53:24;;;;;;;6.00;1.50;;;12.40;99.90;;;;;;5074155;28;20700;-59
2022/11/22 12:55:58;;;;;;;6.57;1.80;;;12.40;99.90;;;;;;5073754;28;20216;-59
2022/11/22 12:58:33;;;;;;;4.87;1.20;;;12.40;99.90;;;;;;5073044;28;20239;-59
2022/11/22 13:01:09;;;;;;;9.27;2.17;;;12.40;99.90;;;;;;5072812;28;20259;-59
2022/11/22 13:03:42;;;;;;;8.03;1.90;;;12.40;99.90;;;;;;5073001;28;20200;-58
2022/11/22 13:06:11;;;;;;;4.93;1.80;;;12.40;99.90;;;;;;5072894;28;20711;-59
2022/11/22 13:08:43;;;;;;;5.47;1.40;;;12.50;99.90;;;;;;5073045;28;20842;-59
2022/11/22 13:11:16;;;;;;;7.43;1.87;;;12.50;99.90;;;;;;5073398;28;20763;-59
2022/11/22 13:13:47;;;;;;;6.57;1.80;;;12.50;99.90;;;;;;5073159;28;20760;-58
2022/11/22 13:16:14;;;;;;;4.33;1.67;;;12.50;99.90;;;;;;5073120;28;20212;-59
2022/11/22 13:18:45;;;;;;;9.67;1.93;;;12.60;99.90;;;;;;5073431;28;20736;-59